Time;durP1;ratioP1;P1;durP2;ratioP2;P2;SDS_P1;SDS_P2;PMS_P1;PMS_P2;Temp;Humidity;BMP_temperature;BMP_pressure;BME280_temperature;BME280_humidity;BME280_pressure;Samples;Min_cycle;Max_cycle;Signal;HPM_P1;HPM_P2
2024/01/25 00:02:15;;;;;;;;;;;;;;;6.16;89.15;100301.73;105794;1292;74407;-53
2024/01/25 00:05:01;;;;;;;;;;;;;;;6.18;89.20;100306.86;105813;1293;68905;-53
2024/01/25 00:07:47;;;;;;;;;;;;;;;6.20;89.02;100316.10;105860;1292;72574;-50
2024/01/25 00:10:33;;;;;;;;;;;;;;;6.21;97.27;100316.27;105776;1292;58854;-52
2024/01/25 00:13:19;;;;;;;;;;;;;;;6.17;91.15;100314.05;105852;1293;59317;-53
2024/01/25 00:16:05;;;;;;;;;;;;;;;6.14;90.24;100309.09;105826;1292;73558;-51
2024/01/25 00:18:51;;;;;;;;;;;;;;;6.10;89.69;100310.98;105785;1292;68317;-52
2024/01/25 00:21:44;;;;;;;;;;;;;;;6.08;89.50;100307.57;105824;1293;71388;-53
2024/01/25 00:24:32;;;;;;;;;;;;;;;6.08;88.95;100312.20;105853;1295;60715;-52
2024/01/25 00:27:18;;;;;;;;;;;;;;;6.14;88.33;100308.58;105864;1293;60015;-53
2024/01/25 00:30:04;;;;;;;;;;;;;;;6.14;88.00;100307.21;105815;1294;74530;-50
2024/01/25 00:32:50;;;;;;;;;;;;;;;6.15;87.82;100315.77;105775;1296;67340;-52
2024/01/25 00:35:44;;;;;;;;;;;;;;;6.18;87.21;100318.85;105793;1292;72628;-52
2024/01/25 00:38:30;;;;;;;;;;;;;;;6.22;87.27;100321.90;105824;1293;59056;-53
2024/01/25 00:41:18;;;;;;;;;;;;;;;6.24;87.03;100325.82;105814;1293;60680;-52
2024/01/25 00:44:04;;;;;;;;;;;;;;;6.27;87.26;100340.87;105793;1292;74461;-53
2024/01/25 00:46:53;;;;;;;;;;;;;;;6.27;87.61;100339.33;105788;1292;68047;-52
2024/01/25 00:49:39;;;;;;;;;;;;;;;6.29;87.58;100350.27;105752;1292;71426;-52
2024/01/25 00:52:25;;;;;;;;;;;;;;;6.27;87.20;100343.27;105791;1292;59457;-51
2024/01/25 00:55:11;;;;;;;;;;;;;;;6.23;87.48;100344.32;105798;1293;60665;-53
2024/01/25 00:57:59;;;;;;;;;;;;;;;6.17;87.92;100339.71;105787;1293;75044;-53
2024/01/25 01:00:45;;;;;;;;;;;;;;;6.08;88.25;100345.05;105864;1293;69077;-52
2024/01/25 01:03:31;;;;;;;;;;;;;;;6.03;88.52;100346.25;105846;1296;71171;-52
2024/01/25 01:06:18;;;;;;;;;;;;;;;5.95;88.76;100343.53;105843;1293;59687;-52
2024/01/25 01:09:04;;;;;;;;;;;;;;;5.88;89.26;100331.71;105802;1292;60715;-49
2024/01/25 01:11:52;;;;;;;;;;;;;;;5.80;89.30;100346.77;105887;1292;74471;-54
2024/01/25 01:14:37;;;;;;;;;;;;;;;5.78;89.53;100344.71;105892;1293;67498;-52
2024/01/25 01:17:23;;;;;;;;;;;;;;;5.76;89.35;100339.23;105889;1292;71272;-53
2024/01/25 01:20:09;;;;;;;;;;;;;;;5.78;89.40;100344.55;105804;1293;59523;-52
2024/01/25 01:22:55;;;;;;;;;;;;;;;5.79;89.41;100336.67;98465;1294;10002550;-53
2024/01/25 01:25:41;;;;;;;;;;;;;;;5.79;89.40;100339.41;102040;1293;5002157;-54
2024/01/25 01:28:27;;;;;;;;;;;;;;;5.80;89.53;100343.86;105733;1293;70191;-54
2024/01/25 01:31:14;;;;;;;;;;;;;;;5.78;89.53;100341.30;105781;1296;59330;-53
2024/01/25 01:34:00;;;;;;;;;;;;;;;5.79;89.49;100343.17;105789;1293;59138;-52
2024/01/25 01:36:46;;;;;;;;;;;;;;;5.81;89.61;100351.03;105757;1292;73407;-53
2024/01/25 01:39:32;;;;;;;;;;;;;;;5.76;92.25;100344.88;105799;1293;68788;-52
2024/01/25 01:42:18;;;;;;;;;;;;;;;5.69;92.86;100352.95;105793;1292;72451;-49
2024/01/25 01:45:04;;;;;;;;;;;;;;;5.63;91.13;100360.31;105874;1293;59190;-52
2024/01/25 01:47:50;;;;;;;;;;;;;;;5.58;91.08;100369.02;105816;1293;59799;-53
2024/01/25 01:50:36;;;;;;;;;;;;;;;5.52;91.39;100364.92;105102;1293;73249;-52
2024/01/25 01:53:22;;;;;;;;;;;;;;;5.45;91.45;100377.23;104563;1293;68521;-51
2024/01/25 01:56:09;;;;;;;;;;;;;;;5.40;91.87;100381.66;104321;1296;289399;-52
2024/01/25 01:58:59;;;;;;;;;;;;;;;5.37;92.07;100387.13;104522;1293;61277;-50
2024/01/25 02:01:45;;;;;;;;;;;;;;;5.33;91.66;100375.84;104545;1294;59252;-52
2024/01/25 02:04:31;;;;;;;;;;;;;;;5.31;92.08;100381.48;104539;1293;75036;-49
2024/01/25 02:07:17;;;;;;;;;;;;;;;5.28;92.08;100377.02;104485;1296;67235;-50
2024/01/25 02:10:05;;;;;;;;;;;;;;;5.26;92.04;100370.36;104537;1293;74140;-51
2024/01/25 02:12:51;;;;;;;;;;;;;;;5.25;92.34;100368.48;104555;1297;61300;-50
2024/01/25 02:15:37;;;;;;;;;;;;;;;5.23;92.42;100365.57;104550;1293;61398;-51
2024/01/25 02:18:23;;;;;;;;;;;;;;;5.23;92.35;100367.79;104561;1296;74010;-52
2024/01/25 02:21:09;;;;;;;;;;;;;;;5.24;92.29;100372.23;104559;1292;68030;-49
2024/01/25 02:23:55;;;;;;;;;;;;;;;5.21;92.08;100374.28;104502;1293;71199;-50
2024/01/25 02:26:41;;;;;;;;;;;;;;;5.22;92.22;100366.94;104545;1294;61240;-52
2024/01/25 02:29:27;;;;;;;;;;;;;;;5.23;92.37;100365.74;104535;1291;61531;-53
2024/01/25 02:32:14;;;;;;;;;;;;;;;5.23;92.24;100368.64;104547;1293;76050;-53
2024/01/25 02:35:00;;;;;;;;;;;;;;;5.24;92.34;100371.04;104523;1293;69264;-49
2024/01/25 02:37:47;;;;;;;;;;;;;;;5.23;92.68;100357.20;104525;1292;72074;-50
2024/01/25 02:40:33;;;;;;;;;;;;;;;5.22;92.70;100348.98;104567;1293;61321;-49
2024/01/25 02:43:20;;;;;;;;;;;;;;;5.23;92.87;100352.41;104508;1293;61613;-51
2024/01/25 02:46:07;;;;;;;;;;;;;;;5.20;92.80;100345.77;104620;1295;72994;-52
2024/01/25 02:48:53;;;;;;;;;;;;;;;5.18;93.08;100349.70;104498;1293;66383;-50
2024/01/25 02:51:39;;;;;;;;;;;;;;;5.15;93.23;100342.00;104477;1293;72435;-51
2024/01/25 02:54:25;;;;;;;;;;;;;;;5.16;93.18;100343.55;104555;1292;61393;-51
2024/01/25 02:57:11;;;;;;;;;;;;;;;5.15;93.18;100338.42;104522;1293;59305;-52
2024/01/25 03:00:08;;;;;;;;;;;;;;;5.18;93.13;100332.95;97204;1293;10003045;-51
2024/01/25 03:03:24;;;;;;;;;;;;;;;5.23;92.99;100341.30;69234;1293;20071902;-52
2024/01/25 03:06:10;;;;;;;;;;;;;;;5.25;92.95;100345.41;105864;1293;63950;-51
2024/01/25 03:08:56;;;;;;;;;;;;;;;5.27;92.85;100353.95;105796;1292;59137;-52
2024/01/25 03:11:42;;;;;;;;;;;;;;;5.35;92.29;100352.77;105831;1293;59178;-52
2024/01/25 03:14:28;;;;;;;;;;;;;;;5.42;92.11;100353.13;105821;1293;75012;-53
2024/01/25 03:17:14;;;;;;;;;;;;;;;5.50;91.37;100350.90;105834;1291;67377;-53
2024/01/25 03:20:00;;;;;;;;;;;;;;;5.54;91.51;100350.22;105824;1293;72407;-52
2024/01/25 03:22:46;;;;;;;;;;;;;;;5.53;91.50;100349.88;105801;1293;58967;-53
2024/01/25 03:25:32;;;;;;;;;;;;;;;5.47;91.77;100357.05;105782;1293;59210;-50
2024/01/25 03:28:18;;;;;;;;;;;;;;;5.43;92.07;100361.66;102122;1293;5003460;-53
2024/01/25 03:31:04;;;;;;;;;;;;;;;5.39;92.44;100373.11;105785;1293;68091;-53
2024/01/25 03:33:50;;;;;;;;;;;;;;;5.35;92.65;100370.20;105826;1293;70552;-53
2024/01/25 03:36:39;;;;;;;;;;;;;;;5.40;92.21;100368.15;105839;1292;59096;-51
2024/01/25 03:39:25;;;;;;;;;;;;;;;5.45;92.16;100369.54;105817;1293;59572;-53
2024/01/25 03:42:11;;;;;;;;;;;;;;;5.49;91.99;100372.95;105801;1293;74597;-53
2024/01/25 03:44:57;;;;;;;;;;;;;;;5.50;91.99;100371.93;105835;1293;68594;-53
2024/01/25 03:47:43;;;;;;;;;;;;;;;5.53;91.81;100369.36;105759;1292;71651;-51
2024/01/25 03:50:28;;;;;;;;;;;;;;;5.54;91.89;100373.81;105813;1292;59325;-54
2024/01/25 03:53:14;;;;;;;;;;;;;;;5.55;91.63;100370.91;105821;1292;59801;-54
2024/01/25 03:56:00;;;;;;;;;;;;;;;5.56;91.47;100373.30;105811;1293;74115;-53
2024/01/25 03:58:46;;;;;;;;;;;;;;;5.57;91.65;100372.95;105816;1294;67461;-52
2024/01/25 04:01:32;;;;;;;;;;;;;;;5.56;91.66;100369.88;105790;1293;71402;-53
2024/01/25 04:04:18;;;;;;;;;;;;;;;5.58;91.44;100360.83;105851;1293;59343;-53
2024/01/25 04:07:04;;;;;;;;;;;;;;;5.59;91.48;100368.17;105815;1292;59423;-54
2024/01/25 04:09:50;;;;;;;;;;;;;;;5.58;91.65;100373.98;105864;1293;73129;-53
2024/01/25 04:12:36;;;;;;;;;;;;;;;5.58;91.35;100373.48;105850;1292;68497;-54
2024/01/25 04:15:22;;;;;;;;;;;;;;;5.56;91.47;100370.40;105820;1293;72570;-53
2024/01/25 04:18:08;;;;;;;;;;;;;;;5.54;91.62;100374.16;105796;1292;58944;-54
2024/01/25 04:20:54;;;;;;;;;;;;;;;5.54;91.81;100372.44;105838;1293;59564;-54
2024/01/25 04:23:40;;;;;;;;;;;;;;;5.53;91.94;100375.52;105801;1293;73492;-53
2024/01/25 04:26:26;;;;;;;;;;;;;;;5.50;92.04;100383.90;105834;1294;67255;-52
2024/01/25 04:29:12;;;;;;;;;;;;;;;5.49;92.08;100373.80;105827;1293;71458;-54
2024/01/25 04:31:58;;;;;;;;;;;;;;;5.45;92.40;100376.02;105804;1293;59024;-52
2024/01/25 04:34:46;;;;;;;;;;;;;;;5.44;92.45;100379.10;105823;1293;59985;-53
2024/01/25 04:37:33;;;;;;;;;;;;;;;5.40;92.56;100382.85;105813;1294;74211;-54
2024/01/25 04:40:19;;;;;;;;;;;;;;;5.39;92.63;100388.49;105860;1293;69606;-54
2024/01/25 04:43:05;;;;;;;;;;;;;;;5.37;92.99;100380.63;105828;1293;71243;-53
2024/01/25 04:45:51;;;;;;;;;;;;;;;5.32;93.23;100373.29;105844;1292;59191;-53
2024/01/25 04:48:37;;;;;;;;;;;;;;;5.30;93.29;100369.52;105870;1294;59547;-53
2024/01/25 04:51:23;;;;;;;;;;;;;;;5.27;93.23;100370.70;105679;1293;74642;-54
2024/01/25 04:54:12;;;;;;;;;;;;;;;5.28;93.19;100371.21;105861;1293;67388;-51
2024/01/25 04:56:58;;;;;;;;;;;;;;;5.26;93.26;100377.54;105830;1293;71356;-54
2024/01/25 04:59:44;;;;;;;;;;;;;;;5.25;93.33;100374.45;105842;1292;59183;-53
2024/01/25 05:02:30;;;;;;;;;;;;;;;5.27;93.20;100369.50;105813;1293;58953;-53
2024/01/25 05:05:16;;;;;;;;;;;;;;;5.26;93.15;100374.46;105809;1293;74486;-53
2024/01/25 05:08:02;;;;;;;;;;;;;;;5.27;93.08;100368.48;105808;1293;68579;-54
2024/01/25 05:10:47;;;;;;;;;;;;;;;5.28;92.99;100378.91;105858;1293;71409;-53
2024/01/25 05:13:33;;;;;;;;;;;;;;;5.29;93.11;100385.06;105807;1292;59409;-53
2024/01/25 05:16:19;;;;;;;;;;;;;;;5.29;93.08;100399.41;105819;1293;58849;-53
2024/01/25 05:19:05;;;;;;;;;;;;;;;5.29;93.07;100403.02;98282;1296;5003565;-54
2024/01/25 05:21:51;;;;;;;;;;;;;;;5.27;93.11;100403.52;105718;1293;72844;-53
2024/01/25 05:24:37;;;;;;;;;;;;;;;5.26;93.16;100406.25;105814;1292;59210;-54
2024/01/25 05:27:23;;;;;;;;;;;;;;;5.25;93.15;100401.11;105795;1293;59981;-54
2024/01/25 05:30:10;;;;;;;;;;;;;;;5.24;93.39;100405.73;105809;1293;74579;-54
2024/01/25 05:32:55;;;;;;;;;;;;;;;5.24;93.40;100406.25;105827;1293;67977;-54
2024/01/25 05:35:41;;;;;;;;;;;;;;;5.22;93.46;100412.56;105816;1292;72139;-54
2024/01/25 05:38:32;;;;;;;;;;;;;;;5.23;93.36;100421.11;50500;1293;10002359;-52
2024/01/25 05:41:39;;;;;;;;;;;;;;;5.23;93.42;100431.02;105762;1293;66182;-53
2024/01/25 05:44:25;;;;;;;;;;;;;;;5.22;93.49;100434.60;105836;1296;71370;-53
2024/01/25 05:47:10;;;;;;;;;;;;;;;5.22;93.67;100436.98;105800;1292;59102;-54
2024/01/25 05:49:56;;;;;;;;;;;;;;;5.21;93.95;100438.71;105819;1292;58953;-54
2024/01/25 05:52:42;;;;;;;;;;;;;;;5.20;94.02;100449.14;83752;1293;10001967;-54
2024/01/25 05:55:48;;;;;;;;;;;;;;;5.17;94.10;100463.84;83561;1294;10001922;-53
2024/01/25 05:58:34;;;;;;;;;;;;;;;5.15;94.37;100470.84;105593;1293;71818;-51
2024/01/25 06:01:20;;;;;;;;;;;;;;;5.14;94.33;100471.69;105835;1293;58357;-53
2024/01/25 06:04:06;;;;;;;;;;;;;;;5.12;94.35;100470.83;105843;1291;59219;-53
2024/01/25 06:06:52;;;;;;;;;;;;;;;5.14;94.86;100476.64;105787;1293;74576;-51
2024/01/25 06:09:38;;;;;;;;;;;;;;;5.12;95.01;100474.92;105863;1293;67506;-54
2024/01/25 06:12:31;;;;;;;;;;;;;;;5.10;95.39;100485.00;105772;1293;71363;-55
2024/01/25 06:15:17;;;;;;;;;;;;;;;5.11;95.45;100484.50;105749;1292;59049;-56
2024/01/25 06:18:03;;;;;;;;;;;;;;;5.12;95.18;100490.30;105822;1291;58995;-55
2024/01/25 06:20:54;;;;;;;;;;;;;;;5.14;95.38;100485.19;105557;1292;230437;-55
2024/01/25 06:23:40;;;;;;;;;;;;;;;5.13;95.43;100493.04;105781;1293;67103;-55
2024/01/25 06:26:26;;;;;;;;;;;;;;;5.13;95.39;100503.46;105814;1292;72637;-55
2024/01/25 06:29:12;;;;;;;;;;;;;;;5.14;95.50;100502.62;105822;1293;58955;-55
2024/01/25 06:31:58;;;;;;;;;;;;;;;5.15;95.49;100505.69;105824;1292;59039;-55
2024/01/25 06:34:44;;;;;;;;;;;;;;;5.18;95.46;100508.44;105784;1292;74823;-55
2024/01/25 06:37:30;;;;;;;;;;;;;;;5.19;95.45;100511.85;105845;1292;68916;-55
2024/01/25 06:40:16;;;;;;;;;;;;;;;5.19;95.38;100513.40;105686;1292;71460;-55
2024/01/25 06:43:03;;;;;;;;;;;;;;;5.20;95.28;100518.52;105811;1293;58677;-55
2024/01/25 06:45:49;;;;;;;;;;;;;;;5.22;95.04;100515.95;105799;1293;59074;-55
2024/01/25 06:48:35;;;;;;;;;;;;;;;5.24;94.96;100525.69;105868;1292;73952;-55
2024/01/25 06:51:21;;;;;;;;;;;;;;;5.25;95.01;100519.89;105841;1296;69332;-54
2024/01/25 06:54:07;;;;;;;;;;;;;;;5.28;95.09;100522.12;105852;1292;72298;-55
2024/01/25 06:56:56;;;;;;;;;;;;;;;5.29;95.07;100522.81;105840;1293;59326;-55
2024/01/25 06:59:42;;;;;;;;;;;;;;;5.31;95.34;100526.41;105844;1293;59220;-55
2024/01/25 07:02:28;;;;;;;;;;;;;;;5.35;95.16;100529.16;105841;1294;74530;-55
2024/01/25 07:05:13;;;;;;;;;;;;;;;5.37;95.18;100539.59;105805;1292;67516;-56
2024/01/25 07:07:59;;;;;;;;;;;;;;;5.39;94.92;100544.73;105813;1292;72114;-55
2024/01/25 07:10:45;;;;;;;;;;;;;;;5.39;94.92;100547.81;105835;1292;59257;-55
2024/01/25 07:13:31;;;;;;;;;;;;;;;5.39;95.01;100558.58;105816;1293;58988;-56
2024/01/25 07:16:19;;;;;;;;;;;;;;;5.40;94.89;100556.02;105844;1292;74506;-53
2024/01/25 07:19:05;;;;;;;;;;;;;;;5.42;94.94;100563.38;105790;1296;67372;-55
2024/01/25 07:21:51;;;;;;;;;;;;;;;5.44;94.79;100567.48;105821;1294;72405;-55
2024/01/25 07:24:36;;;;;;;;;;;;;;;5.45;94.70;100571.94;105840;1293;58946;-55
2024/01/25 07:27:22;;;;;;;;;;;;;;;5.45;94.71;100579.98;105834;1292;59575;-55
2024/01/25 07:30:09;;;;;;;;;;;;;;;5.47;94.70;100581.86;105763;1293;73123;-55
2024/01/25 07:32:55;;;;;;;;;;;;;;;5.48;94.66;100587.85;105809;1293;67279;-54
2024/01/25 07:35:45;;;;;;;;;;;;;;;5.49;94.58;100597.95;105814;1292;72777;-56
2024/01/25 07:38:31;;;;;;;;;;;;;;;5.52;94.65;100609.75;105701;1293;59481;-53
2024/01/25 07:41:17;;;;;;;;;;;;;;;5.52;94.58;100611.29;105827;1292;58988;-56
2024/01/25 07:44:03;;;;;;;;;;;;;;;5.54;94.65;100614.55;105835;1291;74586;-56
2024/01/25 07:46:49;;;;;;;;;;;;;;;5.56;94.36;100622.42;105847;1293;68910;-55
2024/01/25 07:49:35;;;;;;;;;;;;;;;5.59;94.46;100626.20;105765;1293;70389;-55
2024/01/25 07:52:20;;;;;;;;;;;;;;;5.61;94.24;100631.85;105741;1293;59094;-54
2024/01/25 07:55:07;;;;;;;;;;;;;;;5.62;94.25;100636.64;105839;1292;58731;-54
2024/01/25 07:57:52;;;;;;;;;;;;;;;5.62;94.16;100633.73;105833;1293;75617;-53
2024/01/25 08:00:38;;;;;;;;;;;;;;;5.63;94.31;100632.54;105836;1292;68310;-53
2024/01/25 08:03:24;;;;;;;;;;;;;;;5.63;94.25;100638.88;105788;1293;72511;-54
2024/01/25 08:06:11;;;;;;;;;;;;;;;5.63;94.15;100643.48;105769;1296;59352;-54
2024/01/25 08:08:56;;;;;;;;;;;;;;;5.59;94.30;100648.94;105800;1292;59013;-55
2024/01/25 08:11:42;;;;;;;;;;;;;;;5.58;94.40;100652.86;105766;1293;73882;-55
2024/01/25 08:14:29;;;;;;;;;;;;;;;5.58;94.55;100649.61;105764;1293;69141;-54
2024/01/25 08:17:15;;;;;;;;;;;;;;;5.61;94.52;100647.23;105714;1293;73038;-50
2024/01/25 08:20:00;;;;;;;;;;;;;;;5.58;94.55;100654.58;105855;1291;59436;-52
2024/01/25 08:22:46;;;;;;;;;;;;;;;5.58;94.63;100650.81;105794;1292;59650;-55
2024/01/25 08:25:32;;;;;;;;;;;;;;;5.57;94.51;100659.70;105800;1291;74028;-53
2024/01/25 08:28:19;;;;;;;;;;;;;;;5.56;94.66;100672.70;105796;1293;67388;-52
2024/01/25 08:31:06;;;;;;;;;;;;;;;5.57;94.55;100674.24;105801;1293;71153;-54
2024/01/25 08:33:51;;;;;;;;;;;;;;;5.57;94.50;100677.31;105820;1293;59132;-54
2024/01/25 08:36:37;;;;;;;;;;;;;;;5.56;94.48;100677.48;105704;1294;59951;-54
2024/01/25 08:39:23;;;;;;;;;;;;;;;5.56;94.55;100676.27;105828;1293;73310;-54
2024/01/25 08:42:10;;;;;;;;;;;;;;;5.59;94.56;100674.93;105861;1293;68332;-52
2024/01/25 08:44:56;;;;;;;;;;;;;;;5.59;94.30;100683.15;105855;1293;71262;-52
2024/01/25 08:47:44;;;;;;;;;;;;;;;5.60;94.05;100683.66;105825;1291;59087;-54
2024/01/25 08:50:53;;;;;;;;;;;;;;;5.62;93.86;100690.17;47301;1293;20059897;-52
2024/01/25 08:53:39;;;;;;;;;;;;;;;5.67;93.93;100686.60;105688;1293;59117;-52
2024/01/25 08:56:24;;;;;;;;;;;;;;;5.69;93.81;100691.40;105803;1293;73405;-54
2024/01/25 08:59:10;;;;;;;;;;;;;;;5.71;93.89;100701.67;105801;1291;66319;-54
2024/01/25 09:01:56;;;;;;;;;;;;;;;5.73;93.72;100696.35;105769;1291;72613;-54
2024/01/25 09:04:43;;;;;;;;;;;;;;;5.76;93.83;100698.76;105788;1293;59197;-54
2024/01/25 09:07:29;;;;;;;;;;;;;;;5.81;93.83;100701.87;105840;1292;59731;-51
2024/01/25 09:10:15;;;;;;;;;;;;;;;5.87;93.56;100707.02;104747;1293;74262;-53
2024/01/25 09:13:01;;;;;;;;;;;;;;;5.91;93.38;100714.95;104428;1293;67327;-52
2024/01/25 09:15:47;;;;;;;;;;;;;;;5.91;93.29;100725.90;104393;1293;71212;-53
2024/01/25 09:18:33;;;;;;;;;;;;;;;5.91;92.82;100726.06;104364;1292;59741;-54
2024/01/25 09:21:19;;;;;;;;;;;;;;;5.92;92.90;100739.25;104432;1296;61478;-54
2024/01/25 09:24:06;;;;;;;;;;;;;;;5.93;93.02;100745.23;104487;1294;75981;-53
2024/01/25 09:26:53;;;;;;;;;;;;;;;5.94;92.54;100747.98;104521;1293;67295;-55
2024/01/25 09:29:39;;;;;;;;;;;;;;;5.92;92.27;100750.89;104470;1293;71021;-52
2024/01/25 09:32:25;;;;;;;;;;;;;;;5.91;91.87;100759.09;104441;1293;61271;-53
2024/01/25 09:35:12;;;;;;;;;;;;;;;5.92;91.78;100760.98;104509;1293;62402;-55
2024/01/25 09:37:58;;;;;;;;;;;;;;;5.94;91.77;100769.02;104470;1292;73140;-54
2024/01/25 09:40:44;;;;;;;;;;;;;;;5.94;91.86;100766.81;104510;1292;67203;-52
2024/01/25 09:43:30;;;;;;;;;;;;;;;5.97;91.96;100773.33;104483;1292;74017;-54
2024/01/25 09:46:17;;;;;;;;;;;;;;;6.03;91.65;100781.73;104520;1293;61210;-55
2024/01/25 09:49:04;;;;;;;;;;;;;;;6.05;91.70;100786.37;104449;1296;61297;-53
2024/01/25 09:51:51;;;;;;;;;;;;;;;6.05;91.63;100786.20;105791;1293;73212;-54
2024/01/25 09:54:36;;;;;;;;;;;;;;;6.00;91.33;100791.30;105800;1292;67915;-54
2024/01/25 09:57:24;;;;;;;;;;;;;;;5.98;91.27;100789.59;105734;1292;71955;-55
2024/01/25 10:00:11;;;;;;;;;;;;;;;6.00;91.46;100790.10;105660;1294;209669;-54
2024/01/25 10:02:57;;;;;;;;;;;;;;;6.06;91.56;100792.19;105826;1293;59818;-55
2024/01/25 10:05:43;;;;;;;;;;;;;;;6.10;91.32;100799.91;105707;1293;74524;-55
2024/01/25 10:08:30;;;;;;;;;;;;;;;6.14;91.59;100802.34;105817;1293;68227;-55
2024/01/25 10:11:16;;;;;;;;;;;;;;;6.16;90.99;100800.64;105667;1293;71719;-55
2024/01/25 10:14:02;;;;;;;;;;;;;;;6.19;90.93;100800.14;105549;1292;59370;-56
2024/01/25 10:16:50;;;;;;;;;;;;;;;6.20;90.95;100806.81;105710;1293;59716;-55
2024/01/25 10:19:36;;;;;;;;;;;;;;;6.22;90.64;100805.96;105746;1293;74173;-56
2024/01/25 10:22:22;;;;;;;;;;;;;;;6.21;90.56;100810.08;105681;1293;67902;-56
2024/01/25 10:25:14;;;;;;;;;;;;;;;6.20;90.72;100806.14;105696;1293;72599;-55
2024/01/25 10:28:00;;;;;;;;;;;;;;;6.19;90.41;100808.36;105847;1291;58794;-55
2024/01/25 10:30:47;;;;;;;;;;;;;;;6.21;90.57;100809.05;105723;1292;59388;-56
2024/01/25 10:33:33;;;;;;;;;;;;;;;6.20;89.56;100816.23;105718;1293;73363;-56
2024/01/25 10:36:22;;;;;;;;;;;;;;;6.22;89.95;100820.86;105756;1293;68985;-56
2024/01/25 10:39:08;;;;;;;;;;;;;;;6.22;89.96;100820.35;105704;1293;71207;-56
2024/01/25 10:41:55;;;;;;;;;;;;;;;6.24;89.50;100814.52;105773;1291;58972;-56
2024/01/25 10:44:42;;;;;;;;;;;;;;;6.25;89.88;100820.34;105820;1292;59282;-56
2024/01/25 10:47:30;;;;;;;;;;;;;;;6.28;88.90;100825.66;105764;1293;74505;-56
2024/01/25 10:50:16;;;;;;;;;;;;;;;6.27;89.51;100830.45;105774;1293;68975;-56
2024/01/25 10:53:03;;;;;;;;;;;;;;;6.28;88.60;100835.41;105806;1293;72101;-56
2024/01/25 10:55:49;;;;;;;;;;;;;;;6.25;89.04;100839.84;105802;1294;59000;-52
2024/01/25 10:58:37;;;;;;;;;;;;;;;6.23;88.84;100848.42;105816;1292;59793;-56
2024/01/25 11:01:23;;;;;;;;;;;;;;;6.21;89.14;100853.04;105845;1293;74284;-56
2024/01/25 11:04:13;;;;;;;;;;;;;;;6.22;89.22;100850.14;105813;1292;68948;-54
2024/01/25 11:07:11;;;;;;;;;;;;;;;6.23;89.38;100849.79;105803;1293;71298;-54
2024/01/25 11:09:57;;;;;;;;;;;;;;;6.22;89.05;100858.52;105793;1293;59187;-55
2024/01/25 11:13:03;;;;;;;;;;;;;;;6.22;89.04;100855.77;105817;1293;59988;-55
2024/01/25 11:15:49;;;;;;;;;;;;;;;6.22;88.71;100858.35;105803;1293;73364;-55
2024/01/25 11:18:35;;;;;;;;;;;;;;;6.24;89.06;100858.52;105822;1291;67345;-56
2024/01/25 11:21:22;;;;;;;;;;;;;;;6.28;89.10;100861.95;105718;1292;71339;-55
2024/01/25 11:24:12;;;;;;;;;;;;;;;6.27;89.02;100874.78;105748;1294;58985;-55
2024/01/25 11:27:08;;;;;;;;;;;;;;;6.27;89.33;100872.73;105766;1292;60699;-55
2024/01/25 11:29:54;;;;;;;;;;;;;;;6.29;89.46;100873.08;105770;1294;74190;-55
2024/01/25 11:32:40;;;;;;;;;;;;;;;6.32;89.54;100868.48;105767;1293;67497;-55
2024/01/25 11:35:26;;;;;;;;;;;;;;;6.34;88.95;100870.53;105724;1293;72526;-56
2024/01/25 11:38:13;;;;;;;;;;;;;;;6.36;88.74;100877.23;105682;1296;58974;-55
2024/01/25 11:40:59;;;;;;;;;;;;;;;6.37;88.58;100874.15;105702;1292;59346;-56
2024/01/25 11:43:46;;;;;;;;;;;;;;;6.41;88.66;100871.42;105687;1293;74567;-54
2024/01/25 11:46:32;;;;;;;;;;;;;;;6.48;88.67;100874.38;105735;1293;67508;-56
2024/01/25 11:49:18;;;;;;;;;;;;;;;6.56;88.68;100887.77;105722;1292;72482;-56
2024/01/25 11:52:05;;;;;;;;;;;;;;;6.60;88.01;100892.26;105781;1293;59009;-55
2024/01/25 11:54:51;;;;;;;;;;;;;;;6.63;87.71;100898.44;105656;1293;60447;-56
2024/01/25 11:57:41;;;;;;;;;;;;;;;6.60;87.07;100896.88;105685;1293;74608;-56
2024/01/25 12:00:27;;;;;;;;;;;;;;;6.61;87.87;100905.44;105749;1293;68707;-55
2024/01/25 12:03:15;;;;;;;;;;;;;;;6.64;88.00;100904.95;105712;1294;71471;-54
2024/01/25 12:06:01;;;;;;;;;;;;;;;6.63;87.70;100912.48;105684;1293;59032;-56
2024/01/25 12:08:48;;;;;;;;;;;;;;;6.65;88.03;100915.23;105754;1294;59240;-55
2024/01/25 12:11:34;;;;;;;;;;;;;;;6.66;87.69;100916.60;105800;1293;73114;-56
2024/01/25 12:14:20;;;;;;;;;;;;;;;6.63;87.12;100920.02;105767;1293;67469;-56
2024/01/25 12:17:07;;;;;;;;;;;;;;;6.60;87.23;100923.77;105700;1293;72313;-55
2024/01/25 12:19:57;;;;;;;;;;;;;;;6.63;87.93;100924.81;105769;1293;59134;-57
2024/01/25 12:22:44;;;;;;;;;;;;;;;6.68;87.74;100929.98;105832;1293;59725;-56
2024/01/25 12:25:30;;;;;;;;;;;;;;;6.66;86.73;100926.89;105707;1293;73297;-57
2024/01/25 12:28:16;;;;;;;;;;;;;;;6.64;87.06;100929.27;105729;1292;69031;-57
2024/01/25 12:31:04;;;;;;;;;;;;;;;6.65;87.02;100935.45;105728;1292;72388;-56
2024/01/25 12:33:50;;;;;;;;;;;;;;;6.68;86.84;100942.66;105742;1291;59162;-56
2024/01/25 12:36:38;;;;;;;;;;;;;;;6.65;86.14;100949.66;105716;1294;59393;-57
2024/01/25 12:39:24;;;;;;;;;;;;;;;6.65;86.51;100961.14;105756;1294;74149;-56
2024/01/25 12:42:10;;;;;;;;;;;;;;;6.65;86.66;100960.45;105787;1291;66546;-57
2024/01/25 12:44:56;;;;;;;;;;;;;;;6.66;86.56;100958.23;105689;1292;71435;-57
2024/01/25 12:47:42;;;;;;;;;;;;;;;6.61;86.22;100961.46;105595;1296;59761;-57
2024/01/25 12:50:28;;;;;;;;;;;;;;;6.56;86.54;100969.98;105687;1294;59034;-57
2024/01/25 12:53:14;;;;;;;;;;;;;;;6.55;86.35;100975.64;105613;1294;73411;-57
2024/01/25 12:56:03;;;;;;;;;;;;;;;6.52;86.66;100987.95;105616;1293;67208;-56
2024/01/25 12:58:49;;;;;;;;;;;;;;;6.51;86.57;100989.66;105621;1293;71172;-57
2024/01/25 13:01:35;;;;;;;;;;;;;;;6.44;86.32;100991.32;105612;1297;59080;-58
2024/01/25 13:04:22;;;;;;;;;;;;;;;6.43;86.73;101002.95;105669;1297;59216;-57
2024/01/25 13:07:08;;;;;;;;;;;;;;;6.41;86.76;101001.23;105625;1296;74071;-57
2024/01/25 13:09:54;;;;;;;;;;;;;;;6.39;86.86;101005.67;105668;1294;68419;-57
2024/01/25 13:12:40;;;;;;;;;;;;;;;6.35;87.36;101003.41;105604;1296;73277;-57
2024/01/25 13:15:26;;;;;;;;;;;;;;;6.30;86.83;101009.53;105631;1293;59312;-57
2024/01/25 13:18:12;;;;;;;;;;;;;;;6.27;86.96;101017.55;105589;1296;59297;-57
2024/01/25 13:20:58;;;;;;;;;;;;;;;6.21;86.38;101012.05;105573;1296;73545;-57
2024/01/25 13:23:44;;;;;;;;;;;;;;;6.16;86.69;101005.52;105676;1296;68732;-57
2024/01/25 13:26:30;;;;;;;;;;;;;;;6.12;86.93;101017.80;105606;1295;72348;-57
2024/01/25 13:29:16;;;;;;;;;;;;;;;6.09;87.10;101018.12;105637;1296;58774;-57
2024/01/25 13:32:02;;;;;;;;;;;;;;;6.06;87.37;101019.13;105606;1298;58909;-57
2024/01/25 13:34:48;;;;;;;;;;;;;;;6.01;87.77;101025.41;105601;1296;73804;-57
2024/01/25 13:37:34;;;;;;;;;;;;;;;5.91;88.19;101027.02;105713;1296;68726;-56
2024/01/25 13:40:20;;;;;;;;;;;;;;;5.84;88.55;101031.55;105436;1296;72356;-57
2024/01/25 13:43:06;;;;;;;;;;;;;;;5.77;88.56;101037.27;105608;1296;59339;-57
2024/01/25 13:45:52;;;;;;;;;;;;;;;5.72;88.98;101036.05;105646;1296;59878;-56
2024/01/25 13:48:38;;;;;;;;;;;;;;;5.67;89.10;101035.48;105616;1294;74066;-56
2024/01/25 13:51:24;;;;;;;;;;;;;;;5.61;89.44;101040.73;105692;1293;67491;-57
2024/01/25 13:54:09;;;;;;;;;;;;;;;5.56;89.47;101049.91;105360;1297;264116;-56
2024/01/25 13:56:55;;;;;;;;;;;;;;;5.55;89.85;101053.66;105675;1294;59296;-57
2024/01/25 13:59:41;;;;;;;;;;;;;;;5.52;90.09;101053.98;105597;1297;59865;-57
2024/01/25 14:02:27;;;;;;;;;;;;;;;5.50;90.29;101061.80;105585;1296;73317;-54
2024/01/25 14:05:13;;;;;;;;;;;;;;;5.45;90.70;101070.30;105641;1296;67880;-57
2024/01/25 14:08:00;;;;;;;;;;;;;;;5.42;91.05;101070.77;105640;1295;71437;-56
2024/01/25 14:10:46;;;;;;;;;;;;;;;5.40;91.31;101078.95;105566;1296;59742;-57
2024/01/25 14:13:32;;;;;;;;;;;;;;;5.38;91.32;101084.90;105600;1295;59165;-57
2024/01/25 14:16:18;;;;;;;;;;;;;;;5.38;91.14;101092.27;105565;1296;73981;-57